createdAt,value
2022-11-25T00:09:32.208Z,3.14
2022-11-25T00:19:34.524Z,3.16
2022-11-25T00:29:36.998Z,3.19
2022-11-25T00:39:39.583Z,3.23
2022-11-25T00:49:46.577Z,3.26
2022-11-25T00:59:49.554Z,3.28
2022-11-25T01:09:51.912Z,3.32
2022-11-25T01:19:54.306Z,3.33
2022-11-25T01:29:56.691Z,3.35
2022-11-25T01:39:59.196Z,3.41
2022-11-25T01:50:06.399Z,3.43
2022-11-25T02:00:10.876Z,3.50
2022-11-25T02:10:22.057Z,3.59
2022-11-25T02:20:25.454Z,3.69
2022-11-25T02:30:27.884Z,3.65
2022-11-25T02:40:30.856Z,3.67
2022-11-25T02:50:33.169Z,3.66
2022-11-25T03:00:35.750Z,3.63
2022-11-25T03:10:39.020Z,3.60
2022-11-25T03:20:41.723Z,3.55
2022-11-25T03:30:44.506Z,3.46
2022-11-25T03:40:48.298Z,3.55
2022-11-25T03:50:50.865Z,3.59
2022-11-25T04:00:53.475Z,3.65
2022-11-25T04:10:56.201Z,3.62
2022-11-25T04:20:58.745Z,3.35
2022-11-25T04:31:01.195Z,3.18
2022-11-25T04:41:03.867Z,3.20
2022-11-25T04:51:06.365Z,3.25
2022-11-25T05:01:08.898Z,3.34
2022-11-25T05:11:11.335Z,3.39
2022-11-25T05:21:13.899Z,3.37
2022-11-25T05:31:16.584Z,3.44
2022-11-25T05:41:19.112Z,3.57
2022-11-25T05:51:22.360Z,3.66
2022-11-25T06:01:25.135Z,3.73
2022-11-25T06:11:28.020Z,3.80
2022-11-25T06:21:30.392Z,3.84
2022-11-25T06:31:32.996Z,3.92
2022-11-25T06:41:35.681Z,4.00
2022-11-25T06:51:38.355Z,4.05
2022-11-25T07:01:41.039Z,4.09
2022-11-25T07:11:43.781Z,4.16
2022-11-25T07:21:47.220Z,4.28
2022-11-25T07:31:49.877Z,4.39
2022-11-25T07:41:54.277Z,4.48
2022-11-25T07:52:00.289Z,4.57
2022-11-25T08:02:03.254Z,4.67
2022-11-25T08:12:06.165Z,4.82
2022-11-25T08:22:09.199Z,5.00
2022-11-25T08:32:12.163Z,5.17
2022-11-25T08:42:14.853Z,5.32
2022-11-25T08:52:17.632Z,5.38
2022-11-25T09:02:21.329Z,5.52
2022-11-25T09:12:25.199Z,5.67
2022-11-25T09:22:28.095Z,5.88
2022-11-25T09:32:30.975Z,6.08
2022-11-25T09:43:10.919Z,6.21
2022-11-25T09:53:55.194Z,6.26
2022-11-25T10:04:14.595Z,6.62
2022-11-25T10:14:42.567Z,7.12
2022-11-25T10:24:45.709Z,7.31
2022-11-25T10:34:59.237Z,7.64
2022-11-25T10:45:03.040Z,8.01
2022-11-25T10:55:15.374Z,8.44
2022-11-25T11:05:30.473Z,8.50
2022-11-25T11:15:50.307Z,8.17
2022-11-25T11:26:06.352Z,7.87
2022-11-25T11:36:45.634Z,7.75
2022-11-25T11:47:01.355Z,7.67
2022-11-25T11:57:38.811Z,7.69
2022-11-25T12:08:08.273Z,8.15
2022-11-25T12:18:33.776Z,8.44
2022-11-25T12:28:44.747Z,8.63
2022-11-25T12:39:03.070Z,8.97
2022-11-25T12:49:14.818Z,9.31
2022-11-25T12:59:42.673Z,9.37
2022-11-25T13:10:03.573Z,9.53
2022-11-25T13:20:27.966Z,9.45
2022-11-25T13:30:33.665Z,9.66
2022-11-25T13:40:39.920Z,9.82
2022-11-25T13:51:09.628Z,9.76
2022-11-25T14:01:29.787Z,9.57
2022-11-25T14:11:49.608Z,9.24
2022-11-25T14:22:13.195Z,8.95
2022-11-25T14:32:40.279Z,8.58
2022-11-25T14:42:46.935Z,8.30
2022-11-25T14:52:51.000Z,8.16
2022-11-25T15:02:59.581Z,7.92
2022-11-25T15:13:13.809Z,7.69
2022-11-25T15:23:24.029Z,7.56
2022-11-25T15:33:29.683Z,7.29
2022-11-25T15:43:45.894Z,7.11
2022-11-25T15:53:54.957Z,7.13
2022-11-25T16:04:30.095Z,7.17
2022-11-25T16:14:36.657Z,7.20
2022-11-25T16:24:41.545Z,7.18
2022-11-25T16:34:46.211Z,7.12
2022-11-25T16:44:52.028Z,6.88
2022-11-25T16:54:55.198Z,6.55
2022-11-25T17:05:00.344Z,6.40
2022-11-25T17:15:06.198Z,6.43
2022-11-25T17:25:12.929Z,6.54
2022-11-25T17:35:21.104Z,6.68
2022-11-25T17:45:24.494Z,6.78
2022-11-25T17:55:27.720Z,6.89
2022-11-25T18:05:30.255Z,6.96
2022-11-25T18:15:35.262Z,7.04
2022-11-25T18:25:40.616Z,7.09
2022-11-25T18:35:44.459Z,7.16
2022-11-25T18:45:47.336Z,7.21
2022-11-25T18:55:50.830Z,7.17
2022-11-25T19:05:59.772Z,7.11
2022-11-25T19:16:14.282Z,7.11
2022-11-25T19:26:22.341Z,7.06
2022-11-25T19:36:28.953Z,7.01
2022-11-25T19:46:52.510Z,6.97
2022-11-25T19:56:56.643Z,6.86
2022-11-25T20:06:59.445Z,6.56
2022-11-25T20:17:02.237Z,6.20
2022-11-25T20:27:05.131Z,5.89
2022-11-25T20:37:09.690Z,5.63
2022-11-25T20:47:15.419Z,5.32
2022-11-25T20:57:18.310Z,5.17
2022-11-25T21:07:21.118Z,4.94
2022-11-25T21:17:24.204Z,4.60
2022-11-25T21:27:26.918Z,4.39
2022-11-25T21:37:33.418Z,4.21
2022-11-25T21:47:36.152Z,4.01
2022-11-25T21:57:39.517Z,3.75
2022-11-25T22:07:42.581Z,3.57
2022-11-25T22:17:46.039Z,3.41
2022-11-25T22:27:49.584Z,3.31
2022-11-25T22:37:55.192Z,3.14
2022-11-25T22:47:58.793Z,3.03
2022-11-25T22:58:02.352Z,2.93
2022-11-25T23:08:22.283Z,3.04
2022-11-25T23:18:40.038Z,3.11
2022-11-25T23:28:42.615Z,3.08
2022-11-25T23:38:49.616Z,2.91
2022-11-25T23:49:01.635Z,2.66
2022-11-25T23:59:04.174Z,2.59
